sensor_id;sensor_type;location;lat;lon;timestamp;P1;durP1;ratioP1;P2;durP2;ratioP2
13672;SDS011;6909;52.202;9.876;2023-05-07T00:00:07;10.23;;;6.07;;
13672;SDS011;6909;52.202;9.876;2023-05-07T00:02:36;12.03;;;7.43;;
13672;SDS011;6909;52.202;9.876;2023-05-07T00:05:05;7.20;;;5.97;;
13672;SDS011;6909;52.202;9.876;2023-05-07T00:07:32;14.33;;;7.63;;
13672;SDS011;6909;52.202;9.876;2023-05-07T00:09:59;12.00;;;7.00;;
13672;SDS011;6909;52.202;9.876;2023-05-07T00:12:25;13.70;;;7.97;;
13672;SDS011;6909;52.202;9.876;2023-05-07T00:14:52;14.03;;;7.87;;
13672;SDS011;6909;52.202;9.876;2023-05-07T00:17:19;8.53;;;5.93;;
13672;SDS011;6909;52.202;9.876;2023-05-07T00:19:45;12.80;;;6.97;;
13672;SDS011;6909;52.202;9.876;2023-05-07T00:22:14;19.47;;;8.03;;
13672;SDS011;6909;52.202;9.876;2023-05-07T00:24:40;12.00;;;6.73;;
13672;SDS011;6909;52.202;9.876;2023-05-07T00:27:07;8.67;;;6.47;;
13672;SDS011;6909;52.202;9.876;2023-05-07T00:29:34;11.30;;;6.63;;
13672;SDS011;6909;52.202;9.876;2023-05-07T00:32:01;12.73;;;7.30;;
13672;SDS011;6909;52.202;9.876;2023-05-07T00:34:28;10.17;;;6.90;;
13672;SDS011;6909;52.202;9.876;2023-05-07T00:36:55;10.17;;;6.57;;
13672;SDS011;6909;52.202;9.876;2023-05-07T00:39:23;7.77;;;6.13;;
13672;SDS011;6909;52.202;9.876;2023-05-07T00:41:50;9.73;;;7.07;;
13672;SDS011;6909;52.202;9.876;2023-05-07T00:44:16;11.87;;;6.30;;
13672;SDS011;6909;52.202;9.876;2023-05-07T00:46:44;10.67;;;6.27;;
13672;SDS011;6909;52.202;9.876;2023-05-07T00:49:13;10.83;;;7.17;;
13672;SDS011;6909;52.202;9.876;2023-05-07T00:51:40;15.77;;;8.10;;
13672;SDS011;6909;52.202;9.876;2023-05-07T00:54:07;8.57;;;6.00;;
13672;SDS011;6909;52.202;9.876;2023-05-07T00:56:36;7.97;;;5.13;;
13672;SDS011;6909;52.202;9.876;2023-05-07T00:59:04;11.50;;;7.00;;
13672;SDS011;6909;52.202;9.876;2023-05-07T01:01:31;12.90;;;7.20;;
13672;SDS011;6909;52.202;9.876;2023-05-07T01:03:58;16.70;;;8.27;;
13672;SDS011;6909;52.202;9.876;2023-05-07T01:06:25;16.43;;;8.30;;
13672;SDS011;6909;52.202;9.876;2023-05-07T01:08:53;10.40;;;6.47;;
13672;SDS011;6909;52.202;9.876;2023-05-07T01:11:21;7.17;;;5.00;;
13672;SDS011;6909;52.202;9.876;2023-05-07T01:13:50;13.63;;;7.37;;
13672;SDS011;6909;52.202;9.876;2023-05-07T01:16:17;19.30;;;8.40;;
13672;SDS011;6909;52.202;9.876;2023-05-07T01:18:44;13.53;;;6.77;;
13672;SDS011;6909;52.202;9.876;2023-05-07T01:21:13;12.40;;;6.30;;
13672;SDS011;6909;52.202;9.876;2023-05-07T01:23:44;14.97;;;7.30;;
13672;SDS011;6909;52.202;9.876;2023-05-07T01:26:11;12.90;;;7.40;;
13672;SDS011;6909;52.202;9.876;2023-05-07T01:28:38;11.00;;;5.67;;
13672;SDS011;6909;52.202;9.876;2023-05-07T01:31:04;9.40;;;6.83;;
13672;SDS011;6909;52.202;9.876;2023-05-07T01:33:33;9.73;;;5.87;;
13672;SDS011;6909;52.202;9.876;2023-05-07T01:36:02;12.80;;;7.23;;
13672;SDS011;6909;52.202;9.876;2023-05-07T01:38:31;10.47;;;6.77;;
13672;SDS011;6909;52.202;9.876;2023-05-07T01:41:00;13.13;;;7.50;;
13672;SDS011;6909;52.202;9.876;2023-05-07T01:43:28;8.73;;;5.50;;
13672;SDS011;6909;52.202;9.876;2023-05-07T01:45:55;9.27;;;6.07;;
13672;SDS011;6909;52.202;9.876;2023-05-07T01:48:21;10.90;;;5.83;;
13672;SDS011;6909;52.202;9.876;2023-05-07T01:50:48;7.27;;;5.33;;
13672;SDS011;6909;52.202;9.876;2023-05-07T01:53:16;7.63;;;5.37;;
13672;SDS011;6909;52.202;9.876;2023-05-07T01:55:42;9.90;;;6.40;;
13672;SDS011;6909;52.202;9.876;2023-05-07T01:58:11;7.93;;;5.40;;
13672;SDS011;6909;52.202;9.876;2023-05-07T02:00:38;10.97;;;5.10;;
13672;SDS011;6909;52.202;9.876;2023-05-07T02:03:05;7.30;;;4.93;;
13672;SDS011;6909;52.202;9.876;2023-05-07T02:05:32;5.73;;;4.57;;
13672;SDS011;6909;52.202;9.876;2023-05-07T02:07:58;11.03;;;5.33;;
13672;SDS011;6909;52.202;9.876;2023-05-07T02:10:25;7.87;;;4.93;;
13672;SDS011;6909;52.202;9.876;2023-05-07T02:12:52;6.97;;;4.50;;
13672;SDS011;6909;52.202;9.876;2023-05-07T02:15:20;8.30;;;5.63;;
13672;SDS011;6909;52.202;9.876;2023-05-07T02:17:59;6.67;;;4.43;;
13672;SDS011;6909;52.202;9.876;2023-05-07T02:20:27;6.23;;;4.33;;
13672;SDS011;6909;52.202;9.876;2023-05-07T02:22:54;7.27;;;5.03;;
13672;SDS011;6909;52.202;9.876;2023-05-07T02:25:21;7.43;;;4.33;;
13672;SDS011;6909;52.202;9.876;2023-05-07T02:27:47;8.53;;;5.53;;
13672;SDS011;6909;52.202;9.876;2023-05-07T02:30:14;4.90;;;3.33;;
13672;SDS011;6909;52.202;9.876;2023-05-07T02:32:42;5.63;;;3.47;;
13672;SDS011;6909;52.202;9.876;2023-05-07T02:35:09;6.90;;;4.53;;
13672;SDS011;6909;52.202;9.876;2023-05-07T02:37:36;4.37;;;3.97;;
13672;SDS011;6909;52.202;9.876;2023-05-07T02:40:03;6.13;;;4.03;;
13672;SDS011;6909;52.202;9.876;2023-05-07T02:42:30;7.47;;;4.80;;
13672;SDS011;6909;52.202;9.876;2023-05-07T02:44:57;3.97;;;3.43;;
13672;SDS011;6909;52.202;9.876;2023-05-07T02:47:24;4.87;;;4.03;;
13672;SDS011;6909;52.202;9.876;2023-05-07T02:49:53;5.53;;;4.13;;
13672;SDS011;6909;52.202;9.876;2023-05-07T02:52:19;8.10;;;3.73;;
13672;SDS011;6909;52.202;9.876;2023-05-07T02:54:46;5.80;;;3.87;;
13672;SDS011;6909;52.202;9.876;2023-05-07T02:57:13;7.33;;;4.80;;
13672;SDS011;6909;52.202;9.876;2023-05-07T02:59:39;8.03;;;4.87;;
13672;SDS011;6909;52.202;9.876;2023-05-07T03:02:06;6.20;;;3.50;;
13672;SDS011;6909;52.202;9.876;2023-05-07T03:04:33;7.10;;;5.63;;
13672;SDS011;6909;52.202;9.876;2023-05-07T03:07:01;5.00;;;3.90;;
13672;SDS011;6909;52.202;9.876;2023-05-07T03:09:27;7.10;;;4.73;;
13672;SDS011;6909;52.202;9.876;2023-05-07T03:11:54;5.50;;;4.67;;
13672;SDS011;6909;52.202;9.876;2023-05-07T03:14:20;4.97;;;4.13;;
13672;SDS011;6909;52.202;9.876;2023-05-07T03:16:47;8.93;;;4.50;;
13672;SDS011;6909;52.202;9.876;2023-05-07T03:19:14;6.43;;;4.60;;
13672;SDS011;6909;52.202;9.876;2023-05-07T03:21:41;10.53;;;5.00;;
13672;SDS011;6909;52.202;9.876;2023-05-07T03:24:09;6.77;;;4.87;;
13672;SDS011;6909;52.202;9.876;2023-05-07T03:26:36;4.07;;;3.40;;
13672;SDS011;6909;52.202;9.876;2023-05-07T03:29:02;7.67;;;4.37;;
13672;SDS011;6909;52.202;9.876;2023-05-07T03:31:29;6.27;;;3.70;;
13672;SDS011;6909;52.202;9.876;2023-05-07T03:33:56;5.97;;;3.77;;
13672;SDS011;6909;52.202;9.876;2023-05-07T03:36:23;5.63;;;4.10;;
13672;SDS011;6909;52.202;9.876;2023-05-07T03:38:51;6.10;;;4.27;;
13672;SDS011;6909;52.202;9.876;2023-05-07T03:41:19;6.10;;;3.87;;
13672;SDS011;6909;52.202;9.876;2023-05-07T03:43:46;7.20;;;4.27;;
13672;SDS011;6909;52.202;9.876;2023-05-07T03:46:12;4.47;;;3.27;;
13672;SDS011;6909;52.202;9.876;2023-05-07T03:48:39;6.10;;;4.00;;
13672;SDS011;6909;52.202;9.876;2023-05-07T03:51:06;7.00;;;4.40;;
13672;SDS011;6909;52.202;9.876;2023-05-07T03:53:32;5.97;;;4.03;;
13672;SDS011;6909;52.202;9.876;2023-05-07T03:55:59;5.30;;;4.07;;
13672;SDS011;6909;52.202;9.876;2023-05-07T03:58:27;6.53;;;4.67;;
13672;SDS011;6909;52.202;9.876;2023-05-07T04:00:53;6.17;;;3.57;;
13672;SDS011;6909;52.202;9.876;2023-05-07T04:03:20;7.27;;;4.67;;
13672;SDS011;6909;52.202;9.876;2023-05-07T04:05:47;7.80;;;4.77;;
13672;SDS011;6909;52.202;9.876;2023-05-07T04:08:13;6.07;;;3.67;;
13672;SDS011;6909;52.202;9.876;2023-05-07T04:10:40;6.27;;;3.83;;
13672;SDS011;6909;52.202;9.876;2023-05-07T04:13:06;7.17;;;4.37;;
13672;SDS011;6909;52.202;9.876;2023-05-07T04:15:34;6.97;;;4.20;;
13672;SDS011;6909;52.202;9.876;2023-05-07T04:18:01;4.03;;;2.97;;
13672;SDS011;6909;52.202;9.876;2023-05-07T04:20:28;6.17;;;3.83;;
13672;SDS011;6909;52.202;9.876;2023-05-07T04:22:54;4.00;;;3.07;;
13672;SDS011;6909;52.202;9.876;2023-05-07T04:25:21;5.13;;;4.07;;
13672;SDS011;6909;52.202;9.876;2023-05-07T04:27:51;6.83;;;4.60;;
13672;SDS011;6909;52.202;9.876;2023-05-07T04:30:18;8.60;;;4.20;;
13672;SDS011;6909;52.202;9.876;2023-05-07T04:32:46;5.47;;;4.07;;
13672;SDS011;6909;52.202;9.876;2023-05-07T04:35:13;5.73;;;3.97;;
13672;SDS011;6909;52.202;9.876;2023-05-07T04:37:39;6.03;;;3.90;;
13672;SDS011;6909;52.202;9.876;2023-05-07T04:40:06;4.57;;;3.80;;
13672;SDS011;6909;52.202;9.876;2023-05-07T04:42:34;3.40;;;3.07;;
13672;SDS011;6909;52.202;9.876;2023-05-07T04:45:01;5.73;;;3.50;;
13672;SDS011;6909;52.202;9.876;2023-05-07T04:47:29;5.97;;;3.93;;
13672;SDS011;6909;52.202;9.876;2023-05-07T04:49:58;3.77;;;3.10;;
13672;SDS011;6909;52.202;9.876;2023-05-07T04:52:24;6.20;;;3.57;;
13672;SDS011;6909;52.202;9.876;2023-05-07T04:54:51;5.43;;;3.47;;
13672;SDS011;6909;52.202;9.876;2023-05-07T04:57:18;5.33;;;3.73;;
13672;SDS011;6909;52.202;9.876;2023-05-07T04:59:44;8.97;;;4.80;;
13672;SDS011;6909;52.202;9.876;2023-05-07T05:02:11;4.90;;;3.53;;
13672;SDS011;6909;52.202;9.876;2023-05-07T05:04:38;6.43;;;4.10;;
13672;SDS011;6909;52.202;9.876;2023-05-07T05:07:06;6.90;;;3.83;;
13672;SDS011;6909;52.202;9.876;2023-05-07T05:09:32;3.43;;;2.43;;
13672;SDS011;6909;52.202;9.876;2023-05-07T05:11:59;4.23;;;2.97;;
13672;SDS011;6909;52.202;9.876;2023-05-07T05:14:26;4.17;;;3.10;;
13672;SDS011;6909;52.202;9.876;2023-05-07T05:16:52;4.80;;;3.00;;
13672;SDS011;6909;52.202;9.876;2023-05-07T05:19:19;5.17;;;2.73;;
13672;SDS011;6909;52.202;9.876;2023-05-07T05:21:45;4.00;;;2.50;;
13672;SDS011;6909;52.202;9.876;2023-05-07T05:24:13;5.00;;;2.90;;
13672;SDS011;6909;52.202;9.876;2023-05-07T05:26:40;4.57;;;3.57;;
13672;SDS011;6909;52.202;9.876;2023-05-07T05:29:07;4.07;;;2.57;;
13672;SDS011;6909;52.202;9.876;2023-05-07T05:31:33;3.50;;;2.87;;
13672;SDS011;6909;52.202;9.876;2023-05-07T05:34:00;4.07;;;2.43;;
13672;SDS011;6909;52.202;9.876;2023-05-07T05:36:26;3.80;;;2.37;;
13672;SDS011;6909;52.202;9.876;2023-05-07T05:38:53;5.13;;;3.17;;
13672;SDS011;6909;52.202;9.876;2023-05-07T05:41:21;2.77;;;2.27;;
13672;SDS011;6909;52.202;9.876;2023-05-07T05:43:48;4.27;;;3.07;;
13672;SDS011;6909;52.202;9.876;2023-05-07T05:46:14;4.03;;;3.60;;
13672;SDS011;6909;52.202;9.876;2023-05-07T05:48:41;3.33;;;2.63;;
13672;SDS011;6909;52.202;9.876;2023-05-07T05:51:08;4.53;;;2.63;;
13672;SDS011;6909;52.202;9.876;2023-05-07T05:53:34;6.00;;;4.27;;
13672;SDS011;6909;52.202;9.876;2023-05-07T05:56:02;3.50;;;2.57;;
13672;SDS011;6909;52.202;9.876;2023-05-07T05:58:30;5.20;;;2.90;;
13672;SDS011;6909;52.202;9.876;2023-05-07T06:00:56;5.13;;;3.03;;
13672;SDS011;6909;52.202;9.876;2023-05-07T06:03:23;4.17;;;3.10;;
13672;SDS011;6909;52.202;9.876;2023-05-07T06:05:51;5.37;;;3.30;;
13672;SDS011;6909;52.202;9.876;2023-05-07T06:08:17;4.13;;;2.67;;
13672;SDS011;6909;52.202;9.876;2023-05-07T06:10:44;2.60;;;1.97;;
13672;SDS011;6909;52.202;9.876;2023-05-07T06:13:11;4.23;;;3.50;;
13672;SDS011;6909;52.202;9.876;2023-05-07T06:15:39;2.83;;;2.27;;
13672;SDS011;6909;52.202;9.876;2023-05-07T06:18:06;3.50;;;2.73;;
13672;SDS011;6909;52.202;9.876;2023-05-07T06:20:32;3.57;;;2.43;;
13672;SDS011;6909;52.202;9.876;2023-05-07T06:22:59;4.87;;;2.13;;
13672;SDS011;6909;52.202;9.876;2023-05-07T06:25:25;3.33;;;1.90;;
13672;SDS011;6909;52.202;9.876;2023-05-07T06:27:52;2.93;;;2.27;;
13672;SDS011;6909;52.202;9.876;2023-05-07T06:30:19;2.10;;;1.67;;
13672;SDS011;6909;52.202;9.876;2023-05-07T06:32:47;2.80;;;1.97;;
13672;SDS011;6909;52.202;9.876;2023-05-07T06:35:13;2.33;;;1.73;;
13672;SDS011;6909;52.202;9.876;2023-05-07T06:37:41;2.27;;;2.07;;
13672;SDS011;6909;52.202;9.876;2023-05-07T06:40:08;3.97;;;2.30;;
13672;SDS011;6909;52.202;9.876;2023-05-07T06:42:36;2.93;;;1.90;;
13672;SDS011;6909;52.202;9.876;2023-05-07T06:45:03;2.73;;;2.03;;
13672;SDS011;6909;52.202;9.876;2023-05-07T06:47:30;3.37;;;2.20;;
13672;SDS011;6909;52.202;9.876;2023-05-07T06:49:58;3.43;;;2.90;;
13672;SDS011;6909;52.202;9.876;2023-05-07T06:52:25;3.60;;;2.23;;
13672;SDS011;6909;52.202;9.876;2023-05-07T06:54:51;5.33;;;2.47;;
13672;SDS011;6909;52.202;9.876;2023-05-07T06:57:18;3.53;;;1.80;;
13672;SDS011;6909;52.202;9.876;2023-05-07T06:59:45;3.53;;;1.97;;
13672;SDS011;6909;52.202;9.876;2023-05-07T07:02:11;2.73;;;2.10;;
13672;SDS011;6909;52.202;9.876;2023-05-07T07:04:38;3.27;;;1.90;;
13672;SDS011;6909;52.202;9.876;2023-05-07T07:07:06;4.07;;;2.40;;
13672;SDS011;6909;52.202;9.876;2023-05-07T07:09:33;2.70;;;1.90;;
13672;SDS011;6909;52.202;9.876;2023-05-07T07:11:59;3.60;;;3.10;;
13672;SDS011;6909;52.202;9.876;2023-05-07T07:14:26;3.27;;;1.87;;
13672;SDS011;6909;52.202;9.876;2023-05-07T07:16:53;2.73;;;2.13;;
13672;SDS011;6909;52.202;9.876;2023-05-07T07:19:19;3.30;;;2.23;;
13672;SDS011;6909;52.202;9.876;2023-05-07T07:21:46;3.20;;;1.53;;
13672;SDS011;6909;52.202;9.876;2023-05-07T07:24:14;3.63;;;3.27;;
13672;SDS011;6909;52.202;9.876;2023-05-07T07:26:44;2.27;;;2.07;;
13672;SDS011;6909;52.202;9.876;2023-05-07T07:29:10;4.27;;;2.60;;
13672;SDS011;6909;52.202;9.876;2023-05-07T07:31:37;3.27;;;2.70;;
13672;SDS011;6909;52.202;9.876;2023-05-07T07:34:03;3.93;;;2.33;;
13672;SDS011;6909;52.202;9.876;2023-05-07T07:36:30;4.03;;;2.73;;
13672;SDS011;6909;52.202;9.876;2023-05-07T07:38:57;3.10;;;2.27;;
13672;SDS011;6909;52.202;9.876;2023-05-07T07:41:25;4.53;;;3.10;;
13672;SDS011;6909;52.202;9.876;2023-05-07T07:43:51;2.97;;;2.20;;
13672;SDS011;6909;52.202;9.876;2023-05-07T07:46:18;5.27;;;3.00;;
13672;SDS011;6909;52.202;9.876;2023-05-07T07:48:44;4.43;;;2.97;;
13672;SDS011;6909;52.202;9.876;2023-05-07T07:51:11;3.37;;;2.83;;
13672;SDS011;6909;52.202;9.876;2023-05-07T07:53:38;2.77;;;2.10;;
13672;SDS011;6909;52.202;9.876;2023-05-07T07:56:04;5.47;;;3.47;;
13672;SDS011;6909;52.202;9.876;2023-05-07T07:58:33;4.57;;;3.47;;
13672;SDS011;6909;52.202;9.876;2023-05-07T08:01:00;3.50;;;2.70;;
13672;SDS011;6909;52.202;9.876;2023-05-07T08:03:27;4.80;;;3.33;;
13672;SDS011;6909;52.202;9.876;2023-05-07T08:05:56;4.17;;;2.83;;
13672;SDS011;6909;52.202;9.876;2023-05-07T08:08:23;4.60;;;3.67;;
13672;SDS011;6909;52.202;9.876;2023-05-07T08:10:50;4.67;;;3.73;;
13672;SDS011;6909;52.202;9.876;2023-05-07T08:13:17;3.87;;;2.83;;
13672;SDS011;6909;52.202;9.876;2023-05-07T08:15:45;4.90;;;3.57;;
13672;SDS011;6909;52.202;9.876;2023-05-07T08:18:11;4.80;;;3.37;;
13672;SDS011;6909;52.202;9.876;2023-05-07T08:20:38;5.33;;;3.20;;
13672;SDS011;6909;52.202;9.876;2023-05-07T08:23:06;4.13;;;3.37;;
13672;SDS011;6909;52.202;9.876;2023-05-07T08:25:33;4.73;;;3.47;;
13672;SDS011;6909;52.202;9.876;2023-05-07T08:27:59;5.77;;;3.63;;
13672;SDS011;6909;52.202;9.876;2023-05-07T08:30:26;3.87;;;2.70;;
13672;SDS011;6909;52.202;9.876;2023-05-07T08:32:54;4.20;;;3.63;;
13672;SDS011;6909;52.202;9.876;2023-05-07T08:35:21;4.00;;;3.43;;
13672;SDS011;6909;52.202;9.876;2023-05-07T08:37:47;4.10;;;3.23;;
13672;SDS011;6909;52.202;9.876;2023-05-07T08:40:14;5.00;;;3.60;;
13672;SDS011;6909;52.202;9.876;2023-05-07T08:42:41;5.20;;;2.60;;
13672;SDS011;6909;52.202;9.876;2023-05-07T08:45:10;4.53;;;2.97;;
13672;SDS011;6909;52.202;9.876;2023-05-07T08:47:40;4.20;;;2.90;;
13672;SDS011;6909;52.202;9.876;2023-05-07T08:50:10;4.90;;;3.43;;
13672;SDS011;6909;52.202;9.876;2023-05-07T08:52:37;6.03;;;3.80;;
13672;SDS011;6909;52.202;9.876;2023-05-07T08:55:05;3.33;;;2.77;;
13672;SDS011;6909;52.202;9.876;2023-05-07T08:57:33;4.20;;;3.37;;
13672;SDS011;6909;52.202;9.876;2023-05-07T09:00:00;4.87;;;3.00;;
13672;SDS011;6909;52.202;9.876;2023-05-07T09:02:27;4.27;;;3.23;;
13672;SDS011;6909;52.202;9.876;2023-05-07T09:04:54;5.33;;;3.57;;
13672;SDS011;6909;52.202;9.876;2023-05-07T09:07:22;3.93;;;2.77;;
13672;SDS011;6909;52.202;9.876;2023-05-07T09:09:49;4.57;;;2.90;;
13672;SDS011;6909;52.202;9.876;2023-05-07T09:12:17;4.07;;;2.97;;
13672;SDS011;6909;52.202;9.876;2023-05-07T09:14:44;4.60;;;3.40;;
13672;SDS011;6909;52.202;9.876;2023-05-07T09:17:11;5.37;;;3.97;;
13672;SDS011;6909;52.202;9.876;2023-05-07T09:19:37;4.13;;;2.63;;
13672;SDS011;6909;52.202;9.876;2023-05-07T09:22:04;4.80;;;3.77;;
13672;SDS011;6909;52.202;9.876;2023-05-07T09:24:34;6.43;;;3.97;;
13672;SDS011;6909;52.202;9.876;2023-05-07T09:27:02;4.70;;;3.70;;
13672;SDS011;6909;52.202;9.876;2023-05-07T09:29:30;4.87;;;3.63;;
13672;SDS011;6909;52.202;9.876;2023-05-07T09:32:00;4.03;;;3.27;;
13672;SDS011;6909;52.202;9.876;2023-05-07T09:34:27;6.10;;;3.73;;
13672;SDS011;6909;52.202;9.876;2023-05-07T09:36:54;6.93;;;4.47;;
13672;SDS011;6909;52.202;9.876;2023-05-07T09:39:21;4.60;;;4.00;;
13672;SDS011;6909;52.202;9.876;2023-05-07T09:41:50;4.17;;;3.67;;
13672;SDS011;6909;52.202;9.876;2023-05-07T09:44:19;3.37;;;2.93;;
13672;SDS011;6909;52.202;9.876;2023-05-07T09:46:46;8.40;;;4.77;;
13672;SDS011;6909;52.202;9.876;2023-05-07T09:49:18;5.40;;;4.30;;
13672;SDS011;6909;52.202;9.876;2023-05-07T09:51:48;7.10;;;4.33;;
13672;SDS011;6909;52.202;9.876;2023-05-07T09:54:16;4.87;;;3.73;;
13672;SDS011;6909;52.202;9.876;2023-05-07T09:56:43;5.00;;;3.27;;
13672;SDS011;6909;52.202;9.876;2023-05-07T09:59:13;5.83;;;4.50;;
13672;SDS011;6909;52.202;9.876;2023-05-07T10:01:40;6.30;;;4.50;;
13672;SDS011;6909;52.202;9.876;2023-05-07T10:04:08;7.43;;;4.23;;
13672;SDS011;6909;52.202;9.876;2023-05-07T10:06:35;5.63;;;4.33;;
13672;SDS011;6909;52.202;9.876;2023-05-07T10:09:02;7.57;;;4.70;;
13672;SDS011;6909;52.202;9.876;2023-05-07T10:11:30;5.90;;;3.87;;
13672;SDS011;6909;52.202;9.876;2023-05-07T10:13:58;6.20;;;4.30;;
13672;SDS011;6909;52.202;9.876;2023-05-07T10:16:28;6.70;;;4.80;;
13672;SDS011;6909;52.202;9.876;2023-05-07T10:18:57;6.17;;;4.80;;
13672;SDS011;6909;52.202;9.876;2023-05-07T10:21:24;5.10;;;3.53;;
13672;SDS011;6909;52.202;9.876;2023-05-07T10:23:55;5.63;;;4.17;;
13672;SDS011;6909;52.202;9.876;2023-05-07T10:26:24;4.63;;;3.40;;
13672;SDS011;6909;52.202;9.876;2023-05-07T10:28:54;5.93;;;4.63;;
13672;SDS011;6909;52.202;9.876;2023-05-07T10:31:31;5.60;;;4.70;;
13672;SDS011;6909;52.202;9.876;2023-05-07T10:34:09;4.60;;;3.53;;
13672;SDS011;6909;52.202;9.876;2023-05-07T10:36:39;5.37;;;3.73;;
13672;SDS011;6909;52.202;9.876;2023-05-07T10:39:07;4.03;;;3.63;;
13672;SDS011;6909;52.202;9.876;2023-05-07T10:41:34;5.50;;;4.30;;
13672;SDS011;6909;52.202;9.876;2023-05-07T10:44:01;5.10;;;4.20;;
13672;SDS011;6909;52.202;9.876;2023-05-07T10:46:30;4.00;;;3.60;;
13672;SDS011;6909;52.202;9.876;2023-05-07T10:49:06;4.10;;;3.57;;
13672;SDS011;6909;52.202;9.876;2023-05-07T10:51:33;6.27;;;3.53;;
13672;SDS011;6909;52.202;9.876;2023-05-07T10:54:20;5.00;;;4.10;;
13672;SDS011;6909;52.202;9.876;2023-05-07T10:56:48;6.77;;;4.80;;
13672;SDS011;6909;52.202;9.876;2023-05-07T10:59:30;5.67;;;3.77;;
13672;SDS011;6909;52.202;9.876;2023-05-07T11:02:00;5.13;;;3.67;;
13672;SDS011;6909;52.202;9.876;2023-05-07T11:04:29;5.03;;;4.03;;
13672;SDS011;6909;52.202;9.876;2023-05-07T11:07:14;5.80;;;4.27;;
13672;SDS011;6909;52.202;9.876;2023-05-07T11:09:54;4.60;;;3.60;;
13672;SDS011;6909;52.202;9.876;2023-05-07T11:15:38;4.97;;;3.90;;
13672;SDS011;6909;52.202;9.876;2023-05-07T11:18:08;5.73;;;4.27;;
13672;SDS011;6909;52.202;9.876;2023-05-07T11:20:45;5.60;;;3.77;;
13672;SDS011;6909;52.202;9.876;2023-05-07T11:26:41;5.43;;;3.67;;
13672;SDS011;6909;52.202;9.876;2023-05-07T11:29:13;5.90;;;3.90;;
13672;SDS011;6909;52.202;9.876;2023-05-07T11:31:41;4.10;;;3.40;;
13672;SDS011;6909;52.202;9.876;2023-05-07T11:34:10;4.07;;;3.07;;
13672;SDS011;6909;52.202;9.876;2023-05-07T11:36:41;4.40;;;3.73;;
13672;SDS011;6909;52.202;9.876;2023-05-07T11:39:25;5.50;;;4.10;;
13672;SDS011;6909;52.202;9.876;2023-05-07T11:41:53;4.23;;;3.67;;
13672;SDS011;6909;52.202;9.876;2023-05-07T11:44:20;4.83;;;3.93;;
13672;SDS011;6909;52.202;9.876;2023-05-07T11:46:46;5.27;;;4.43;;
13672;SDS011;6909;52.202;9.876;2023-05-07T11:49:16;4.63;;;3.57;;
13672;SDS011;6909;52.202;9.876;2023-05-07T11:51:43;3.93;;;3.10;;
13672;SDS011;6909;52.202;9.876;2023-05-07T11:54:11;4.40;;;3.57;;
13672;SDS011;6909;52.202;9.876;2023-05-07T11:56:41;4.40;;;3.43;;
13672;SDS011;6909;52.202;9.876;2023-05-07T11:59:07;4.67;;;3.70;;
13672;SDS011;6909;52.202;9.876;2023-05-07T12:01:34;3.57;;;3.27;;
13672;SDS011;6909;52.202;9.876;2023-05-07T12:04:02;4.40;;;3.57;;
13672;SDS011;6909;52.202;9.876;2023-05-07T12:06:31;4.17;;;3.47;;
13672;SDS011;6909;52.202;9.876;2023-05-07T12:09:02;4.80;;;3.10;;
13672;SDS011;6909;52.202;9.876;2023-05-07T12:11:29;4.23;;;3.73;;
13672;SDS011;6909;52.202;9.876;2023-05-07T12:13:56;5.03;;;4.10;;
13672;SDS011;6909;52.202;9.876;2023-05-07T12:16:23;3.50;;;3.00;;
13672;SDS011;6909;52.202;9.876;2023-05-07T12:18:50;3.40;;;3.10;;
13672;SDS011;6909;52.202;9.876;2023-05-07T12:21:17;3.30;;;2.97;;
13672;SDS011;6909;52.202;9.876;2023-05-07T12:23:45;3.03;;;2.73;;
13672;SDS011;6909;52.202;9.876;2023-05-07T12:26:12;3.47;;;2.80;;
13672;SDS011;6909;52.202;9.876;2023-05-07T12:28:40;3.43;;;3.10;;
13672;SDS011;6909;52.202;9.876;2023-05-07T12:31:07;3.33;;;3.00;;
13672;SDS011;6909;52.202;9.876;2023-05-07T12:33:34;5.57;;;4.07;;
13672;SDS011;6909;52.202;9.876;2023-05-07T12:36:02;4.23;;;3.20;;
13672;SDS011;6909;52.202;9.876;2023-05-07T12:38:34;3.20;;;2.90;;
13672;SDS011;6909;52.202;9.876;2023-05-07T12:41:03;3.00;;;2.73;;
13672;SDS011;6909;52.202;9.876;2023-05-07T12:43:30;3.90;;;3.50;;
13672;SDS011;6909;52.202;9.876;2023-05-07T12:45:58;4.17;;;3.77;;
13672;SDS011;6909;52.202;9.876;2023-05-07T12:48:27;4.03;;;3.63;;
13672;SDS011;6909;52.202;9.876;2023-05-07T12:50:53;3.90;;;3.50;;
13672;SDS011;6909;52.202;9.876;2023-05-07T12:53:22;3.50;;;3.03;;
13672;SDS011;6909;52.202;9.876;2023-05-07T12:55:50;3.70;;;3.30;;
13672;SDS011;6909;52.202;9.876;2023-05-07T12:58:20;4.57;;;4.03;;
13672;SDS011;6909;52.202;9.876;2023-05-07T13:00:47;5.33;;;3.90;;
13672;SDS011;6909;52.202;9.876;2023-05-07T13:03:22;5.50;;;4.20;;
13672;SDS011;6909;52.202;9.876;2023-05-07T13:05:50;5.20;;;4.63;;
13672;SDS011;6909;52.202;9.876;2023-05-07T13:08:24;6.10;;;4.20;;
13672;SDS011;6909;52.202;9.876;2023-05-07T13:10:54;5.13;;;4.73;;
13672;SDS011;6909;52.202;9.876;2023-05-07T13:13:23;7.13;;;5.20;;
13672;SDS011;6909;52.202;9.876;2023-05-07T13:15:50;5.10;;;4.33;;
13672;SDS011;6909;52.202;9.876;2023-05-07T13:18:16;6.07;;;5.20;;
13672;SDS011;6909;52.202;9.876;2023-05-07T13:20:43;5.40;;;4.70;;
13672;SDS011;6909;52.202;9.876;2023-05-07T13:23:10;4.47;;;3.97;;
13672;SDS011;6909;52.202;9.876;2023-05-07T13:25:36;5.30;;;4.73;;
13672;SDS011;6909;52.202;9.876;2023-05-07T13:28:03;5.33;;;4.67;;
13672;SDS011;6909;52.202;9.876;2023-05-07T13:30:31;5.67;;;4.40;;
13672;SDS011;6909;52.202;9.876;2023-05-07T13:32:58;5.30;;;4.47;;
13672;SDS011;6909;52.202;9.876;2023-05-07T13:35:25;5.17;;;4.00;;
13672;SDS011;6909;52.202;9.876;2023-05-07T13:37:51;4.97;;;4.47;;
13672;SDS011;6909;52.202;9.876;2023-05-07T13:40:19;5.43;;;4.73;;
13672;SDS011;6909;52.202;9.876;2023-05-07T13:42:46;4.67;;;4.10;;
13672;SDS011;6909;52.202;9.876;2023-05-07T13:45:13;4.33;;;3.93;;
13672;SDS011;6909;52.202;9.876;2023-05-07T13:47:41;5.00;;;4.40;;
13672;SDS011;6909;52.202;9.876;2023-05-07T13:50:08;5.17;;;4.30;;
13672;SDS011;6909;52.202;9.876;2023-05-07T13:52:36;4.67;;;3.97;;
13672;SDS011;6909;52.202;9.876;2023-05-07T13:55:03;4.53;;;3.87;;
13672;SDS011;6909;52.202;9.876;2023-05-07T13:57:30;5.10;;;4.60;;
13672;SDS011;6909;52.202;9.876;2023-05-07T13:59:57;4.60;;;4.10;;
13672;SDS011;6909;52.202;9.876;2023-05-07T14:02:23;5.70;;;4.60;;
13672;SDS011;6909;52.202;9.876;2023-05-07T14:04:51;5.73;;;4.53;;
13672;SDS011;6909;52.202;9.876;2023-05-07T14:07:18;5.47;;;4.57;;
13672;SDS011;6909;52.202;9.876;2023-05-07T14:09:44;5.53;;;3.83;;
13672;SDS011;6909;52.202;9.876;2023-05-07T14:12:11;3.67;;;3.23;;
13672;SDS011;6909;52.202;9.876;2023-05-07T14:14:38;4.23;;;3.60;;
13672;SDS011;6909;52.202;9.876;2023-05-07T14:17:04;4.87;;;4.23;;
13672;SDS011;6909;52.202;9.876;2023-05-07T14:19:31;4.33;;;3.60;;
13672;SDS011;6909;52.202;9.876;2023-05-07T14:22:00;6.40;;;4.40;;
13672;SDS011;6909;52.202;9.876;2023-05-07T14:24:27;5.70;;;3.97;;
13672;SDS011;6909;52.202;9.876;2023-05-07T14:26:54;4.43;;;3.90;;
13672;SDS011;6909;52.202;9.876;2023-05-07T14:29:20;3.80;;;3.30;;
13672;SDS011;6909;52.202;9.876;2023-05-07T14:31:47;4.17;;;3.77;;
13672;SDS011;6909;52.202;9.876;2023-05-07T14:34:14;4.23;;;3.60;;
13672;SDS011;6909;52.202;9.876;2023-05-07T14:36:41;4.27;;;3.87;;
13672;SDS011;6909;52.202;9.876;2023-05-07T14:39:10;4.43;;;3.70;;
13672;SDS011;6909;52.202;9.876;2023-05-07T14:41:36;4.77;;;4.13;;
13672;SDS011;6909;52.202;9.876;2023-05-07T14:44:03;4.47;;;3.67;;
13672;SDS011;6909;52.202;9.876;2023-05-07T14:46:30;4.87;;;3.97;;
13672;SDS011;6909;52.202;9.876;2023-05-07T14:48:56;5.10;;;4.47;;
13672;SDS011;6909;52.202;9.876;2023-05-07T14:51:23;5.37;;;4.50;;
13672;SDS011;6909;52.202;9.876;2023-05-07T14:53:50;5.03;;;4.13;;
13672;SDS011;6909;52.202;9.876;2023-05-07T14:56:18;6.30;;;4.37;;
13672;SDS011;6909;52.202;9.876;2023-05-07T14:58:46;5.70;;;3.93;;
13672;SDS011;6909;52.202;9.876;2023-05-07T15:01:13;5.97;;;4.57;;
13672;SDS011;6909;52.202;9.876;2023-05-07T15:03:40;5.70;;;4.37;;
13672;SDS011;6909;52.202;9.876;2023-05-07T15:06:06;7.37;;;4.73;;
13672;SDS011;6909;52.202;9.876;2023-05-07T15:08:33;5.63;;;4.23;;